Terminal Aerodrome Forecast
Issued by NWS Springfield, MO

Home | Current Version | Previous Version | Text Only | Print | Product List | Glossary On
Versions: 1 2 3 4 5 6 7 8 9 10 11 12 13 14
000
FTUS43 KSGF 041120
TAFSGF
TAF
KSGF 041120Z 0412/0512 17008KT P6SM SCT200
     FM042100 22007KT P6SM VCTS SCT050CB
     FM050000 22006KT P6SM SCT050 BKN150 PROB30 0501/0505 4SM TSRA
      BR BKN040CB
     FM051000 14008KT P6SM OVC100=

USA.gov is the U.S. government's official web portal to all federal, state and local government web resources and services.